Time;durP1;ratioP1;P1;durP2;ratioP2;P2;SDS_P1;SDS_P2;PMS_P1;PMS_P2;Temp;Humidity;BMP_temperature;BMP_pressure;BME280_temperature;BME280_humidity;BME280_pressure;Samples;Min_cycle;Max_cycle;Signal;HPM_P1;HPM_P2
2023/01/15 00:01:33;;;;;;;;;;;7.40;99.90;;;;;;5093921;28;20377;-62
2023/01/15 00:03:59;;;;;;;;;;;7.40;99.90;;;;;;5093936;28;19958;-62
2023/01/15 00:06:25;;;;;;;;;;;7.30;99.90;;;;;;5093527;28;19908;-62
2023/01/15 00:08:51;;;;;;;;;;;7.30;99.90;;;;;;5093636;28;19908;-62
2023/01/15 00:11:17;;;;;;;;;;;7.20;99.90;;;;;;5093641;28;19908;-62
2023/01/15 00:13:42;;;;;;;;;;;7.20;99.90;;;;;;5093616;28;19908;-62
2023/01/15 00:16:11;;;;;;;;;;;7.10;99.90;;;;;;5093541;28;19975;-63
2023/01/15 00:18:36;;;;;;;;;;;7.10;99.90;;;;;;5094636;28;19914;-62
2023/01/15 00:21:03;;;;;;;;;;;7.00;99.90;;;;;;5097872;28;20383;-62
2023/01/15 00:29:01;;;;;;;;;;;6.70;99.90;;;;;;5097289;28;19908;-64
2023/01/15 00:31:27;;;;;;;;;;;6.50;99.90;;;;;;5097670;28;19908;-62
2023/01/15 00:33:52;;;;;;;;;;;6.40;99.90;;;;;;5097379;28;19931;-62
2023/01/15 00:36:18;;;;;;;;;;;6.40;99.90;;;;;;5097414;28;19908;-62
2023/01/15 00:38:43;;;;;;;;;;;6.30;99.90;;;;;;5097210;28;19962;-62
2023/01/15 00:41:09;;;;;;;;;;;6.40;99.90;;;;;;5097264;28;19912;-63
2023/01/15 00:43:34;;;;;;;;;;;6.20;99.90;;;;;;5097503;28;19935;-62
2023/01/15 00:45:59;;;;;;;;;;;6.20;99.90;;;;;;5097148;28;19912;-62
2023/01/15 00:48:25;;;;;;;;;;;6.10;99.90;;;;;;5097135;28;20369;-62
2023/01/15 00:50:50;;;;;;;;;;;6.10;99.90;;;;;;5097301;28;20277;-61
2023/01/15 00:53:16;;;;;;;;;;;6.00;99.90;;;;;;5096986;28;19956;-61
2023/01/15 00:55:42;;;;;;;;;;;6.00;99.90;;;;;;5096914;28;19912;-62
2023/01/15 00:58:08;;;;;;;;;;;5.90;99.90;;;;;;5096585;28;19921;-61
2023/01/15 01:00:33;;;;;;;;;;;5.80;99.90;;;;;;5078837;28;19918;-61
2023/01/15 01:02:59;;;;;;;;;;;5.90;99.90;;;;;;5096877;28;19997;-61
2023/01/15 01:05:24;;;;;;;;;;;5.90;99.90;;;;;;5096771;28;20250;-61
2023/01/15 01:07:50;;;;;;;;;;;5.80;99.90;;;;;;5096922;28;19908;-61
2023/01/15 01:10:15;;;;;;;;;;;5.80;99.90;;;;;;5096713;28;19915;-61
2023/01/15 01:12:41;;;;;;;;;;;5.80;99.90;;;;;;5096914;28;19916;-61
2023/01/15 01:15:08;;;;;;;;;;;5.90;99.90;;;;;;5096590;28;19959;-61
2023/01/15 01:17:35;;;;;;;;;;;5.90;99.90;;;;;;5096439;28;20007;-61
2023/01/15 01:20:01;;;;;;;;;;;6.00;99.90;;;;;;5096507;28;19908;-61
2023/01/15 01:22:27;;;;;;;;;;;6.00;99.90;;;;;;5096474;28;19915;-61
2023/01/15 01:24:52;;;;;;;;;;;6.00;99.90;;;;;;5096681;28;19912;-61
2023/01/15 01:27:18;;;;;;;;;;;6.10;99.90;;;;;;5096648;28;19908;-61
2023/01/15 01:29:43;;;;;;;;;;;6.10;99.90;;;;;;5095839;28;19908;-62
2023/01/15 01:32:09;;;;;;;;;;;6.10;99.90;;;;;;5096529;28;19912;-62
2023/01/15 01:34:34;;;;;;;;;;;6.10;99.90;;;;;;5096258;28;19908;-61
2023/01/15 01:37:00;;;;;;;;;;;6.10;99.90;;;;;;5078141;28;19962;-61
2023/01/15 01:39:25;;;;;;;;;;;6.10;99.90;;;;;;5096161;28;19919;-62
2023/01/15 01:41:50;;;;;;;;;;;6.10;99.90;;;;;;5096109;28;19908;-61
2023/01/15 01:44:34;;;;;;;;;;;6.10;99.90;;;;;;5096057;28;19914;-61
2023/01/15 01:47:00;;;;;;;;;;;6.10;99.90;;;;;;5095982;28;19912;-61
2023/01/15 01:49:26;;;;;;;;;;;6.10;99.90;;;;;;5095951;28;20370;-61
2023/01/15 01:52:01;;;;;;;;;;;6.20;99.90;;;;;;5096169;28;19908;-61
2023/01/15 01:54:28;;;;;;;;;;;6.10;99.90;;;;;;5095881;28;19914;-61
2023/01/15 01:56:53;;;;;;;;;;;6.10;99.90;;;;;;5077476;28;20418;-61
2023/01/15 01:59:19;;;;;;;;;;;6.10;99.90;;;;;;5095850;28;19939;-61
2023/01/15 02:01:45;;;;;;;;;;;6.10;99.90;;;;;;5095688;28;19908;-61
2023/01/15 02:04:11;;;;;;;;;;;6.10;99.90;;;;;;5095937;28;19961;-62
2023/01/15 02:06:38;;;;;;;;;;;6.10;99.90;;;;;;5095637;28;19908;-61
2023/01/15 02:09:03;;;;;;;;;;;6.10;99.90;;;;;;5095534;28;19916;-62
2023/01/15 02:11:29;;;;;;;;;;;6.10;99.90;;;;;;5095546;28;19912;-61
2023/01/15 02:14:03;;;;;;;;;;;6.10;99.90;;;;;;5095512;28;19915;-61
2023/01/15 02:16:35;;;;;;;;;;;6.20;99.90;;;;;;5095420;28;19908;-62
2023/01/15 02:19:21;;;;;;;;;;;6.10;99.90;;;;;;5095618;28;19918;-61
2023/01/15 02:22:06;;;;;;;;;;;6.10;99.90;;;;;;5095465;28;19908;-61
2023/01/15 02:24:47;;;;;;;;;;;6.20;99.90;;;;;;5095138;28;19908;-62
2023/01/15 02:27:15;;;;;;;;;;;6.10;99.90;;;;;;5077279;28;19912;-62
2023/01/15 02:32:24;;;;;;;;;;;6.20;99.90;;;;;;5071045;28;19919;-62
2023/01/15 02:34:52;;;;;;;;;;;6.20;99.90;;;;;;5071211;28;19917;-62
2023/01/15 02:37:21;;;;;;;;;;;6.20;99.90;;;;;;5071208;28;19959;-61
2023/01/15 02:39:47;;;;;;;;;;;6.30;99.90;;;;;;5070857;28;20370;-61
2023/01/15 02:42:13;;;;;;;;;;;6.20;99.90;;;;;;5070858;28;19909;-62
2023/01/15 02:44:40;;;;;;;;;;;6.30;99.90;;;;;;5071020;28;19939;-62
2023/01/15 02:47:08;;;;;;;;;;;6.30;99.90;;;;;;5070743;28;19995;-62
2023/01/15 02:49:35;;;;;;;;;;;6.40;99.90;;;;;;5070923;28;20367;-62
2023/01/15 02:52:04;;;;;;;;;;;6.40;99.90;;;;;;5070808;28;20334;-62
2023/01/15 02:54:32;;;;;;;;;;;6.40;99.90;;;;;;5070861;28;19909;-62
2023/01/15 02:56:59;;;;;;;;;;;6.30;99.90;;;;;;5086253;28;19947;-62
2023/01/15 02:59:29;;;;;;;;;;;6.30;99.90;;;;;;5070717;28;20271;-62
2023/01/15 03:01:58;;;;;;;;;;;6.30;99.90;;;;;;5070445;28;19958;-62
2023/01/15 03:04:29;;;;;;;;;;;6.30;99.90;;;;;;5070645;28;19938;-61
2023/01/15 03:06:59;;;;;;;;;;;6.40;99.90;;;;;;5070596;28;19968;-62
2023/01/15 03:09:25;;;;;;;;;;;6.40;99.90;;;;;;5070576;28;19908;-61
2023/01/15 03:12:10;;;;;;;;;;;6.40;99.90;;;;;;5070016;28;19935;-62
2023/01/15 03:14:39;;;;;;;;;;;6.40;99.90;;;;;;5070271;28;20267;-62
2023/01/15 03:17:22;;;;;;;;;;;6.40;99.90;;;;;;5070370;28;19908;-62
2023/01/15 03:19:52;;;;;;;;;;;6.40;99.90;;;;;;5070332;28;20420;-62
2023/01/15 03:22:25;;;;;;;;;;;6.40;99.90;;;;;;5070245;28;19955;-62
2023/01/15 03:24:53;;;;;;;;;;;6.40;99.90;;;;;;5069946;28;20003;-62
2023/01/15 03:27:19;;;;;;;;;;;6.40;99.90;;;;;;5070151;28;20341;-62
2023/01/15 03:29:46;;;;;;;;;;;6.30;99.90;;;;;;5069901;28;19944;-62
2023/01/15 03:32:13;;;;;;;;;;;6.30;99.90;;;;;;5089279;28;19924;-62
2023/01/15 03:34:54;;;;;;;;;;;6.30;99.90;;;;;;5090011;28;19908;-61
2023/01/15 03:37:21;;;;;;;;;;;6.40;99.90;;;;;;5089950;28;19919;-62
2023/01/15 03:39:47;;;;;;;;;;;6.40;99.90;;;;;;5090203;28;20007;-61
2023/01/15 03:42:17;;;;;;;;;;;6.40;99.90;;;;;;5084751;28;19936;-62
2023/01/15 03:44:51;;;;;;;;;;;6.40;99.90;;;;;;5076520;28;20274;-62
2023/01/15 03:47:28;;;;;;;;;;;6.40;99.90;;;;;;5076343;28;19909;-62
2023/01/15 03:50:13;;;;;;;;;;;6.40;99.90;;;;;;5076170;28;20305;-62
2023/01/15 03:52:43;;;;;;;;;;;6.40;99.90;;;;;;5076023;28;19908;-62
2023/01/15 03:57:53;;;;;;;;;;;6.40;99.90;;;;;;5091345;28;19919;-62
2023/01/15 04:00:24;;;;;;;;;;;6.40;99.90;;;;;;5091222;28;19912;-63
2023/01/15 04:02:50;;;;;;;;;;;6.50;99.90;;;;;;5091115;28;19919;-62
2023/01/15 04:05:17;;;;;;;;;;;6.50;99.90;;;;;;5091162;28;20002;-62
2023/01/15 04:07:43;;;;;;;;;;;6.50;99.90;;;;;;5091310;28;19946;-63
2023/01/15 04:10:09;;;;;;;;;;;6.50;99.90;;;;;;5124175;28;20370;-62
2023/01/15 04:12:34;;;;;;;;;;;6.50;99.90;;;;;;5091221;28;19908;-63
2023/01/15 04:15:00;;;;;;;;;;;6.50;99.90;;;;;;5090831;28;19931;-62
2023/01/15 04:17:25;;;;;;;;;;;6.50;99.90;;;;;;5090813;28;19938;-62
2023/01/15 04:19:50;;;;;;;;;;;6.40;99.90;;;;;;5091028;28;19923;-62
2023/01/15 04:22:16;;;;;;;;;;;6.40;99.90;;;;;;5090768;28;19915;-62
2023/01/15 04:24:41;;;;;;;;;;;6.50;99.90;;;;;;5090692;28;19908;-62
2023/01/15 04:27:07;;;;;;;;;;;6.50;99.90;;;;;;5090699;28;19908;-62
2023/01/15 04:29:32;;;;;;;;;;;6.50;99.90;;;;;;5090544;28;19915;-62
2023/01/15 04:31:58;;;;;;;;;;;6.40;99.90;;;;;;5090549;28;19909;-62
2023/01/15 04:34:25;;;;;;;;;;;6.40;99.90;;;;;;5090769;28;19908;-62
2023/01/15 04:36:50;;;;;;;;;;;6.40;99.90;;;;;;5090655;28;19955;-62
2023/01/15 04:39:16;;;;;;;;;;;6.40;99.90;;;;;;5123539;28;19909;-62
2023/01/15 04:44:28;;;;;;;;;;;6.40;99.90;;;;;;5090168;28;19952;-62
2023/01/15 04:46:53;;;;;;;;;;;6.40;99.90;;;;;;5090539;28;19942;-62
2023/01/15 04:49:19;;;;;;;;;;;6.40;99.90;;;;;;5090535;28;19912;-62
2023/01/15 04:51:45;;;;;;;;;;;6.40;99.90;;;;;;5090474;28;19909;-62
2023/01/15 04:54:11;;;;;;;;;;;6.40;99.90;;;;;;5090461;28;20431;-62
2023/01/15 04:56:39;;;;;;;;;;;6.30;99.90;;;;;;5100644;28;19969;-62
2023/01/15 04:59:05;;;;;;;;;;;6.30;99.90;;;;;;5110667;28;19997;-62
2023/01/15 05:01:30;;;;;;;;;;;6.40;99.90;;;;;;5110577;28;19908;-62
2023/01/15 05:03:57;;;;;;;;;;;6.40;99.90;;;;;;5110310;28;20362;-62
2023/01/15 05:06:23;;;;;;;;;;;6.30;99.90;;;;;;5110507;28;19908;-62
2023/01/15 05:08:48;;;;;;;;;;;6.30;99.90;;;;;;5098648;28;19908;-62
2023/01/15 05:11:13;;;;;;;;;;;6.30;99.90;;;;;;5096590;28;20397;-62
2023/01/15 05:13:39;;;;;;;;;;;6.30;99.90;;;;;;5096563;28;19919;-62
2023/01/15 05:16:08;;;;;;;;;;;6.30;99.90;;;;;;5096380;28;20040;-62
2023/01/15 05:18:34;;;;;;;;;;;6.30;99.90;;;;;;5096698;28;20396;-62
2023/01/15 05:20:59;;;;;;;;;;;6.30;99.90;;;;;;5096614;28;19939;-62
2023/01/15 05:23:25;;;;;;;;;;;6.30;99.90;;;;;;5096621;28;19909;-62
2023/01/15 05:25:50;;;;;;;;;;;6.40;99.90;;;;;;5096244;28;19913;-62
2023/01/15 05:28:16;;;;;;;;;;;6.30;99.90;;;;;;5096561;28;19908;-62
2023/01/15 05:30:41;;;;;;;;;;;6.30;99.90;;;;;;5096480;28;19961;-62
2023/01/15 05:33:07;;;;;;;;;;;6.30;99.90;;;;;;5096160;28;19908;-62
2023/01/15 05:35:32;;;;;;;;;;;6.30;99.90;;;;;;5096053;28;19919;-63
2023/01/15 05:37:58;;;;;;;;;;;6.40;99.90;;;;;;5096123;28;20293;-62
2023/01/15 05:40:23;;;;;;;;;;;6.30;99.90;;;;;;5095961;28;19931;-62
2023/01/15 05:42:48;;;;;;;;;;;6.30;99.90;;;;;;5095981;28;19915;-62
2023/01/15 05:45:14;;;;;;;;;;;6.40;99.90;;;;;;5096180;28;19953;-62
2023/01/15 05:47:39;;;;;;;;;;;6.40;99.90;;;;;;5095907;28;19912;-62
2023/01/15 05:50:05;;;;;;;;;;;6.40;99.90;;;;;;5095822;28;19970;-62
2023/01/15 05:52:30;;;;;;;;;;;6.40;99.90;;;;;;5077713;28;19915;-62
2023/01/15 05:54:56;;;;;;;;;;;6.40;99.90;;;;;;5096054;28;19909;-62
2023/01/15 05:57:21;;;;;;;;;;;6.30;99.90;;;;;;5095582;28;20365;-62
2023/01/15 05:59:49;;;;;;;;;;;6.30;99.90;;;;;;5095690;28;19916;-62
2023/01/15 06:02:14;;;;;;;;;;;6.40;99.90;;;;;;5095892;28;19909;-63
2023/01/15 06:04:40;;;;;;;;;;;6.40;99.90;;;;;;5095570;28;19919;-62
2023/01/15 06:07:05;;;;;;;;;;;6.40;99.90;;;;;;5095531;28;19908;-62
2023/01/15 06:09:31;;;;;;;;;;;6.40;99.90;;;;;;5095441;28;19960;-62
2023/01/15 06:11:56;;;;;;;;;;;6.40;99.90;;;;;;5095724;28;19957;-62
2023/01/15 06:14:22;;;;;;;;;;;6.40;99.90;;;;;;5095641;28;19969;-62
2023/01/15 06:16:48;;;;;;;;;;;6.40;99.90;;;;;;5095536;28;19919;-62
2023/01/15 06:19:13;;;;;;;;;;;6.50;99.90;;;;;;5094301;28;19908;-62
2023/01/15 06:21:39;;;;;;;;;;;6.50;99.90;;;;;;5095224;28;19908;-62
2023/01/15 06:24:05;;;;;;;;;;;6.40;99.90;;;;;;5077126;28;19912;-62
2023/01/15 06:26:30;;;;;;;;;;;6.40;99.90;;;;;;5095126;28;20361;-62
2023/01/15 06:28:56;;;;;;;;;;;6.40;99.90;;;;;;5095064;28;19958;-62
2023/01/15 06:31:22;;;;;;;;;;;6.40;99.90;;;;;;5095039;28;19915;-62
2023/01/15 06:33:47;;;;;;;;;;;6.50;99.90;;;;;;5095228;28;19923;-62
2023/01/15 06:36:14;;;;;;;;;;;6.40;99.90;;;;;;5094888;28;19912;-62
2023/01/15 06:38:40;;;;;;;;;;;6.50;99.90;;;;;;5095171;28;20385;-62
2023/01/15 06:47:19;;;;;;;;;;;6.50;99.90;;;;;;5094876;28;19908;-62
2023/01/15 06:49:33;;;;;;;;;;;6.60;99.90;;;;;;5079430;28;19908;-62
2023/01/15 06:51:58;;;;;;;;;;;6.60;99.90;;;;;;5094974;28;19912;-62
2023/01/15 06:54:24;;;;;;;;;;;6.60;99.90;;;;;;5094870;28;20411;-62
2023/01/15 06:56:49;;;;;;;;;;;6.60;99.90;;;;;;5094363;28;19950;-62
2023/01/15 06:59:15;;;;;;;;;;;6.60;99.90;;;;;;5094802;28;20340;-63
2023/01/15 07:01:41;;;;;;;;;;;6.60;99.90;;;;;;5094459;28;19908;-62
2023/01/15 07:04:06;;;;;;;;;;;6.50;99.90;;;;;;5094407;28;19908;-62
2023/01/15 07:06:32;;;;;;;;;;;6.60;99.90;;;;;;5094597;28;19908;-62
2023/01/15 07:08:57;;;;;;;;;;;6.60;99.90;;;;;;5094601;28;19933;-62
2023/01/15 07:11:23;;;;;;;;;;;6.60;99.90;;;;;;5094588;28;20362;-62
2023/01/15 07:13:48;;;;;;;;;;;6.50;99.90;;;;;;5094280;28;19916;-61
2023/01/15 07:16:29;;;;;;;;;;;6.60;99.90;;;;;;5094434;28;19912;-62
2023/01/15 07:18:54;;;;;;;;;;;6.60;99.90;;;;;;5094131;28;20026;-62
2023/01/15 07:21:20;;;;;;;;;;;6.60;99.90;;;;;;5094381;28;19940;-62
2023/01/15 07:23:46;;;;;;;;;;;6.60;99.90;;;;;;5094361;28;19912;-62
2023/01/15 07:26:11;;;;;;;;;;;6.60;99.90;;;;;;5094104;28;19953;-62
2023/01/15 07:28:37;;;;;;;;;;;6.60;99.90;;;;;;5094299;28;19908;-62
2023/01/15 07:31:03;;;;;;;;;;;6.60;99.90;;;;;;5094027;28;19915;-62
2023/01/15 07:33:28;;;;;;;;;;;6.70;99.90;;;;;;5093990;28;19976;-62
2023/01/15 07:35:54;;;;;;;;;;;6.60;99.90;;;;;;5094116;28;19920;-62
2023/01/15 07:38:19;;;;;;;;;;;6.70;99.90;;;;;;5093948;28;19959;-62
2023/01/15 07:49:44;;;;;;;;;;;6.70;99.90;;;;;;5093982;28;20381;-62
2023/01/15 07:51:46;;;;;;;;;;;5.90;99.90;;;;;;5093569;28;19915;-62
2023/01/15 07:54:12;;;;;;;;;;;5.20;99.90;;;;;;5093725;28;19912;-61
2023/01/15 07:56:37;;;;;;;;;;;4.80;99.90;;;;;;5093431;28;19920;-61
2023/01/15 07:59:03;;;;;;;;;;;4.70;99.90;;;;;;5093660;28;19915;-61
2023/01/15 08:01:28;;;;;;;;;;;4.60;99.90;;;;;;5093647;28;19909;-62
2023/01/15 08:03:53;;;;;;;;;;;4.60;99.90;;;;;;5093628;28;19916;-62
2023/01/15 08:06:19;;;;;;;;;;;4.60;99.90;;;;;;5093638;28;19959;-61
2023/01/15 08:08:44;;;;;;;;;;;4.60;99.90;;;;;;5093593;28;19908;-62
2023/01/15 08:16:41;;;;;;;;;;;4.50;99.90;;;;;;5093259;28;20365;-61
2023/01/15 08:19:06;;;;;;;;;;;4.60;99.90;;;;;;5093791;28;19908;-61
2023/01/15 08:21:31;;;;;;;;;;;4.70;99.90;;;;;;5093719;28;19908;-61
2023/01/15 08:23:57;;;;;;;;;;;5.00;99.90;;;;;;5093762;28;19915;-61
2023/01/15 08:26:22;;;;;;;;;;;5.40;99.90;;;;;;5093655;28;20365;-61
2023/01/15 08:28:48;;;;;;;;;;;5.60;99.90;;;;;;5093444;28;20320;-62
2023/01/15 08:31:13;;;;;;;;;;;5.70;99.90;;;;;;5093365;28;19947;-62
2023/01/15 08:33:39;;;;;;;;;;;5.80;99.90;;;;;;5093349;28;19909;-62
2023/01/15 08:36:04;;;;;;;;;;;5.90;99.90;;;;;;5093268;28;19912;-61
2023/01/15 08:38:29;;;;;;;;;;;6.00;99.90;;;;;;5093341;28;19912;-61
2023/01/15 08:40:58;;;;;;;;;;;6.20;99.90;;;;;;5093279;28;19916;-61
2023/01/15 08:43:27;;;;;;;;;;;6.30;99.90;;;;;;5095351;28;19947;-62
2023/01/15 08:45:57;;;;;;;;;;;6.50;99.90;;;;;;5097091;28;20370;-62
2023/01/15 08:48:23;;;;;;;;;;;6.50;99.90;;;;;;5097300;28;19931;-61
2023/01/15 08:50:49;;;;;;;;;;;6.60;99.90;;;;;;5097019;28;20378;-62
2023/01/15 08:53:15;;;;;;;;;;;6.60;99.90;;;;;;5097253;28;20254;-62
2023/01/15 08:55:40;;;;;;;;;;;6.60;99.90;;;;;;5096616;28;19920;-62
2023/01/15 08:58:06;;;;;;;;;;;6.60;99.90;;;;;;5096851;28;19912;-62
2023/01/15 09:00:31;;;;;;;;;;;6.60;99.90;;;;;;5097080;28;19908;-61
2023/01/15 09:02:57;;;;;;;;;;;6.70;99.90;;;;;;5096815;28;19908;-62
2023/01/15 09:05:22;;;;;;;;;;;6.70;99.90;;;;;;5096709;28;19908;-62
2023/01/15 09:07:48;;;;;;;;;;;6.70;99.90;;;;;;5096960;28;19908;-62
2023/01/15 09:10:13;;;;;;;;;;;6.70;99.90;;;;;;5096812;28;20392;-62
2023/01/15 09:12:39;;;;;;;;;;;6.80;99.90;;;;;;5096578;28;19915;-61
2023/01/15 09:15:04;;;;;;;;;;;6.70;99.90;;;;;;5078480;28;20263;-62
2023/01/15 09:17:31;;;;;;;;;;;6.80;99.90;;;;;;5096406;28;19981;-62
2023/01/15 09:19:56;;;;;;;;;;;6.80;99.90;;;;;;5096720;28;19908;-61
2023/01/15 09:22:21;;;;;;;;;;;6.80;99.90;;;;;;5096399;28;20006;-61
2023/01/15 09:24:47;;;;;;;;;;;6.80;99.90;;;;;;5096375;28;19908;-62
2023/01/15 09:27:12;;;;;;;;;;;6.80;99.90;;;;;;5096591;28;19915;-61
2023/01/15 09:29:38;;;;;;;;;;;6.80;99.90;;;;;;5078102;28;20419;-61
2023/01/15 09:32:04;;;;;;;;;;;6.80;99.90;;;;;;5096444;28;19908;-61
2023/01/15 09:34:29;;;;;;;;;;;6.80;99.90;;;;;;5096463;28;19916;-61
2023/01/15 09:36:55;;;;;;;;;;;6.80;99.90;;;;;;5096148;28;19965;-61
2023/01/15 09:39:20;;;;;;;;;;;6.70;99.90;;;;;;5096362;28;19908;-61
2023/01/15 09:42:07;;;;;;;;;;;6.70;99.90;;;;;;5096045;28;20291;-61
2023/01/15 09:44:52;;;;;;;;;;;6.70;99.90;;;;;;5096232;28;19990;-61
2023/01/15 09:47:35;;;;;;;;;;;6.70;99.90;;;;;;5080800;28;19908;-61
2023/01/15 09:50:08;;;;;;;;;;;6.70;99.90;;;;;;5096131;28;19923;-61
2023/01/15 09:55:30;;;;;;;;;;;6.80;99.90;;;;;;5091292;27;19913;-61
2023/01/15 09:57:58;;;;;;;;;;;7.30;99.90;;;;;;5091143;28;19912;-61
2023/01/15 10:00:25;;;;;;;;;;;7.60;99.90;;;;;;5091107;28;19908;-61
2023/01/15 10:03:00;;;;;;;;;;;7.90;99.90;;;;;;5091077;28;19909;-61
2023/01/15 10:05:30;;;;;;;;;;;8.10;99.90;;;;;;5090999;28;19909;-61
2023/01/15 10:08:13;;;;;;;;;;;8.10;99.90;;;;;;5090970;28;19908;-61
2023/01/15 10:10:43;;;;;;;;;;;8.50;99.90;;;;;;5091114;28;19915;-61
2023/01/15 10:13:14;;;;;;;;;;;8.70;99.90;;;;;;5090991;28;19988;-61
2023/01/15 10:15:43;;;;;;;;;;;8.30;99.90;;;;;;5091106;28;19915;-61
2023/01/15 10:18:14;;;;;;;;;;;7.90;99.90;;;;;;5090816;28;19912;-61
2023/01/15 10:21:01;;;;;;;;;;;7.40;99.90;;;;;;5090723;28;20434;-61
2023/01/15 10:23:33;;;;;;;;;;;7.60;99.90;;;;;;5090684;28;19908;-61
2023/01/15 10:26:15;;;;;;;;;;;7.50;99.90;;;;;;5090859;28;19908;-61
2023/01/15 10:29:02;;;;;;;;;;;7.60;99.90;;;;;;5090549;28;19909;-61
2023/01/15 10:31:39;;;;;;;;;;;7.70;99.90;;;;;;5090507;28;19912;-61
2023/01/15 10:34:20;;;;;;;;;;;8.00;99.90;;;;;;5090344;28;19912;-61
2023/01/15 10:36:46;;;;;;;;;;;;;;;;;;5090420;28;19952;-61
2023/01/15 10:39:19;;;;;;;;;;;7.50;99.90;;;;;;5090355;28;19908;-61
2023/01/15 10:41:56;;;;;;;;;;;7.30;99.90;;;;;;5090585;28;19908;-61
2023/01/15 10:44:27;;;;;;;;;;;7.50;99.90;;;;;;5090272;28;19908;-61
2023/01/15 10:46:55;;;;;;;;;;;7.40;99.90;;;;;;5090238;28;20294;-61
2023/01/15 10:49:20;;;;;;;;;;;7.30;99.90;;;;;;5090406;28;19958;-61
2023/01/15 10:51:52;;;;;;;;;;;7.30;99.90;;;;;;5090433;28;19971;-61
2023/01/15 10:54:28;;;;;;;;;;;7.40;99.90;;;;;;5101038;28;19967;-62
2023/01/15 10:57:00;;;;;;;;;;;7.50;99.90;;;;;;5110652;28;19915;-61
2023/01/15 10:59:33;;;;;;;;;;;7.30;99.90;;;;;;5110357;28;19908;-61
2023/01/15 11:02:00;;;;;;;;;;;7.50;99.90;;;;;;5110277;28;20392;-61
2023/01/15 11:04:28;;;;;;;;;;;7.60;99.90;;;;;;5092061;28;19908;-61
2023/01/15 11:06:53;;;;;;;;;;;8.00;99.90;;;;;;5096038;28;19998;-61
2023/01/15 11:09:21;;;;;;;;;;;8.30;99.90;;;;;;5096528;28;20008;-63
2023/01/15 11:20:28;;;;;;;;;;;7.80;99.90;;;;;;5090891;28;20374;-61
2023/01/15 11:22:56;;;;;;;;;;;7.80;99.90;;;;;;5091108;28;19908;-61
2023/01/15 11:25:26;;;;;;;;;;;7.70;99.90;;;;;;5091013;28;19908;-61
2023/01/15 11:27:52;;;;;;;;;;;7.60;99.90;;;;;;5091206;28;19913;-61
2023/01/15 11:30:26;;;;;;;;;;;7.70;99.90;;;;;;5091193;28;19908;-61
2023/01/15 11:32:55;;;;;;;;;;;7.60;99.90;;;;;;5090978;28;20289;-60
2023/01/15 11:35:21;;;;;;;;;;;7.60;99.90;;;;;;5089641;28;19912;-60
2023/01/15 11:37:53;;;;;;;;;;;;;;;;;;5090737;28;19908;-61
2023/01/15 11:40:22;;;;;;;;;;;7.60;99.90;;;;;;5090776;28;20370;-62
2023/01/15 11:51:18;;;;;;;;;;;7.50;99.90;;;;;;5090500;28;19909;-61
2023/01/15 11:53:47;;;;;;;;;;;7.50;99.90;;;;;;5090706;28;19935;-61
2023/01/15 11:56:15;;;;;;;;;;;7.50;99.90;;;;;;5090437;28;20352;-61
2023/01/15 11:58:44;;;;;;;;;;;7.60;99.90;;;;;;5090629;28;19999;-61
2023/01/15 12:01:11;;;;;;;;;;;7.60;99.90;;;;;;5089063;28;20350;-62
2023/01/15 12:03:39;;;;;;;;;;;7.60;99.90;;;;;;5090573;28;19908;-61
2023/01/15 12:06:06;;;;;;;;;;;7.60;99.90;;;;;;5090474;28;19995;-61
2023/01/15 12:08:34;;;;;;;;;;;7.60;99.90;;;;;;5090271;28;20369;-61
2023/01/15 12:11:04;;;;;;;;;;;7.60;99.90;;;;;;5090165;28;19915;-61
2023/01/15 12:16:36;;;;;;;;;;;7.80;99.90;;;;;;5091346;27;20292;-61
2023/01/15 12:19:16;;;;;;;;;;;7.80;99.90;;;;;;5091264;28;19912;-62
2023/01/15 12:22:01;;;;;;;;;;;7.90;99.90;;;;;;5091351;28;20345;-61
2023/01/15 12:24:36;;;;;;;;;;;8.10;99.90;;;;;;5089801;28;20437;-61
2023/01/15 12:27:11;;;;;;;;;;;8.10;99.90;;;;;;5091036;28;20255;-61
2023/01/15 12:29:43;;;;;;;;;;;7.90;99.90;;;;;;5091235;28;19908;-61
2023/01/15 12:32:12;;;;;;;;;;;7.80;99.90;;;;;;5091198;28;19908;-61
2023/01/15 12:34:49;;;;;;;;;;;7.80;99.90;;;;;;5091084;28;19917;-61
2023/01/15 12:37:21;;;;;;;;;;;7.70;99.90;;;;;;5091126;28;19915;-61
2023/01/15 12:39:50;;;;;;;;;;;7.80;99.90;;;;;;5091099;28;19967;-61
2023/01/15 12:45:15;;;;;;;;;;;7.80;99.90;;;;;;5090506;28;19913;-60
2023/01/15 12:47:48;;;;;;;;;;;7.70;99.90;;;;;;5090873;28;19987;-61
2023/01/15 12:50:25;;;;;;;;;;;7.80;99.90;;;;;;5090802;28;19931;-61
2023/01/15 12:52:56;;;;;;;;;;;7.70;99.90;;;;;;5090489;28;19999;-61
2023/01/15 12:55:25;;;;;;;;;;;7.70;99.90;;;;;;5090316;28;19961;-61
2023/01/15 12:57:53;;;;;;;;;;;7.70;99.90;;;;;;5090309;28;19909;-61
2023/01/15 13:00:22;;;;;;;;;;;7.70;99.90;;;;;;5090401;28;19909;-62
2023/01/15 13:03:08;;;;;;;;;;;7.70;99.90;;;;;;5090590;28;19991;-61
2023/01/15 13:05:40;;;;;;;;;;;7.70;99.90;;;;;;5090394;28;20286;-61
2023/01/15 13:08:12;;;;;;;;;;;7.70;99.90;;;;;;5090224;28;20065;-62
2023/01/15 13:10:39;;;;;;;;;;;7.60;99.90;;;;;;5090446;28;19919;-61
2023/01/15 13:13:25;;;;;;;;;;;7.60;99.90;;;;;;5090425;28;19908;-61
2023/01/15 13:15:57;;;;;;;;;;;7.70;99.90;;;;;;5107083;28;19920;-62
2023/01/15 13:18:35;;;;;;;;;;;7.80;99.90;;;;;;5110402;28;19915;-62
2023/01/15 13:21:05;;;;;;;;;;;7.90;99.90;;;;;;5110236;28;19915;-61
2023/01/15 13:23:50;;;;;;;;;;;7.90;99.90;;;;;;5110273;28;19915;-61
2023/01/15 13:26:40;;;;;;;;;;;7.70;99.90;;;;;;5104249;28;19908;-61
2023/01/15 13:29:16;;;;;;;;;;;7.70;99.90;;;;;;5096531;28;19909;-61
2023/01/15 13:31:51;;;;;;;;;;;7.60;99.90;;;;;;5096574;28;19908;-61
2023/01/15 13:34:27;;;;;;;;;;;7.50;99.90;;;;;;5096523;28;19923;-61
2023/01/15 13:36:54;;;;;;;;;;;7.50;99.90;;;;;;5096468;28;19908;-61
2023/01/15 13:39:23;;;;;;;;;;;7.40;99.90;;;;;;5096445;28;20365;-61
2023/01/15 13:44:36;;;;;;;;;;;7.50;99.90;;;;;;5080971;28;19908;-61
2023/01/15 13:47:04;;;;;;;;;;;7.50;99.90;;;;;;5096270;28;20330;-61
2023/01/15 13:49:33;;;;;;;;;;;7.40;99.90;;;;;;5078392;28;19972;-61
2023/01/15 13:52:03;;;;;;;;;;;7.40;99.90;;;;;;5096435;28;19947;-61
2023/01/15 13:54:30;;;;;;;;;;;7.40;99.90;;;;;;5096015;28;20297;-61
2023/01/15 13:57:15;;;;;;;;;;;7.40;99.90;;;;;;5096071;28;19908;-61
2023/01/15 13:59:42;;;;;;;;;;;7.40;99.90;;;;;;5095851;28;19908;-61
2023/01/15 14:02:24;;;;;;;;;;;7.40;99.90;;;;;;5095995;28;20366;-61
2023/01/15 14:04:50;;;;;;;;;;;7.40;99.90;;;;;;5096208;28;20054;-61
2023/01/15 14:07:17;;;;;;;;;;;7.40;99.90;;;;;;5095882;28;19969;-61
2023/01/15 14:09:43;;;;;;;;;;;7.40;99.90;;;;;;5096133;28;19908;-61
2023/01/15 14:12:15;;;;;;;;;;;7.40;99.90;;;;;;5095780;28;20349;-61
2023/01/15 14:15:01;;;;;;;;;;;7.40;99.90;;;;;;5095474;28;19923;-60
2023/01/15 14:17:27;;;;;;;;;;;;;;;;;;5095632;28;20003;-61
2023/01/15 14:20:12;;;;;;;;;;;7.40;99.90;;;;;;5095878;28;19938;-61
2023/01/15 14:22:57;;;;;;;;;;;7.40;99.90;;;;;;5095446;28;20008;-62
2023/01/15 14:25:30;;;;;;;;;;;7.40;99.90;;;;;;5095423;28;19908;-61
2023/01/15 14:28:10;;;;;;;;;;;7.40;99.90;;;;;;5095726;28;19915;-61
2023/01/15 14:30:51;;;;;;;;;;;7.40;99.90;;;;;;5095679;28;20366;-61
2023/01/15 14:33:24;;;;;;;;;;;7.40;99.90;;;;;;5095640;28;19912;-60
2023/01/15 14:35:49;;;;;;;;;;;7.40;99.90;;;;;;5095263;28;19912;-61
2023/01/15 14:38:17;;;;;;;;;;;7.50;99.90;;;;;;5094288;28;19908;-61
2023/01/15 14:40:58;;;;;;;;;;;7.40;99.90;;;;;;5095468;28;19908;-60
2023/01/15 14:43:25;;;;;;;;;;;7.40;99.90;;;;;;5095130;28;19916;-61
2023/01/15 14:45:51;;;;;;;;;;;7.40;99.90;;;;;;5095374;28;19934;-61
2023/01/15 14:48:19;;;;;;;;;;;7.40;99.90;;;;;;5095376;28;19912;-61
2023/01/15 14:50:45;;;;;;;;;;;7.40;99.90;;;;;;5095302;28;19995;-61
2023/01/15 14:53:13;;;;;;;;;;;7.50;99.90;;;;;;5095214;28;19947;-60
2023/01/15 14:55:58;;;;;;;;;;;7.50;99.90;;;;;;5095107;28;20410;-60
2023/01/15 14:58:30;;;;;;;;;;;7.50;99.90;;;;;;5094727;28;19908;-61
2023/01/15 15:00:58;;;;;;;;;;;7.50;99.90;;;;;;5094718;28;19915;-60
2023/01/15 15:03:33;;;;;;;;;;;7.50;99.90;;;;;;5094974;28;19930;-61
2023/01/15 15:05:59;;;;;;;;;;;7.50;99.90;;;;;;5076657;28;19908;-61
2023/01/15 15:08:28;;;;;;;;;;;7.50;99.90;;;;;;5094663;28;19908;-61
2023/01/15 15:10:55;;;;;;;;;;;7.50;99.90;;;;;;5094694;28;19909;-61
2023/01/15 15:13:27;;;;;;;;;;;7.50;99.90;;;;;;5094714;28;20412;-61
2023/01/15 15:16:03;;;;;;;;;;;7.50;99.90;;;;;;5094348;28;20282;-61
2023/01/15 15:18:35;;;;;;;;;;;7.40;99.90;;;;;;5094801;28;19949;-60
2023/01/15 15:21:04;;;;;;;;;;;7.50;99.90;;;;;;5094712;28;20033;-61
2023/01/15 15:23:50;;;;;;;;;;;7.50;99.90;;;;;;5094710;28;19959;-61
2023/01/15 15:26:19;;;;;;;;;;;7.40;99.90;;;;;;5076275;28;19907;-60
2023/01/15 15:29:06;;;;;;;;;;;7.40;99.90;;;;;;5094311;28;19915;-61
2023/01/15 15:31:33;;;;;;;;;;;7.30;99.90;;;;;;5094179;28;19909;-61
2023/01/15 15:33:58;;;;;;;;;;;7.30;99.90;;;;;;5094503;28;19908;-61
2023/01/15 15:36:25;;;;;;;;;;;7.20;99.90;;;;;;5094135;28;20449;-61
2023/01/15 15:38:55;;;;;;;;;;;7.10;99.90;;;;;;5094166;28;19908;-61
2023/01/15 15:48:40;;;;;;;;;;;7.10;99.90;;;;;;5094130;28;19908;-61
2023/01/15 15:49:43;;;;;;;;;;;7.10;99.90;;;;;;5093576;28;20359;-61